Time;durP1;ratioP1;P1;durP2;ratioP2;P2;SDS_P1;SDS_P2;PMS_P1;PMS_P2;Temp;Humidity;BMP_temperature;BMP_pressure;BME280_temperature;BME280_humidity;BME280_pressure;Samples;Min_cycle;Max_cycle;Signal;HPM_P1;HPM_P2
2022/01/25 00:28:41;;;;;;;21.83;13.50;;;4.00;99.90;;;;;;6180485;23;20035;-75
2022/01/25 00:31:13;;;;;;;23.33;13.07;;;4.00;99.90;;;;;;6225999;23;20069;-75
2022/01/25 00:38:17;;;;;;;19.92;11.70;;;4.00;99.90;;;;;;6227518;23;20023;-74
2022/01/25 00:40:43;;;;;;;20.05;11.38;;;4.00;99.90;;;;;;6227001;23;20441;-74
2022/01/25 00:43:11;;;;;;;23.17;12.77;;;4.00;99.90;;;;;;6226833;23;20060;-75
2022/01/25 00:45:36;;;;;;;21.92;13.80;;;3.90;99.90;;;;;;6227635;23;20005;-75
2022/01/25 00:48:03;;;;;;;24.05;13.82;;;3.90;99.90;;;;;;6200147;23;20128;-74
2022/01/25 00:50:37;;;;;;;24.58;13.30;;;3.90;99.90;;;;;;6226614;23;20013;-75
2022/01/25 00:55:30;;;;;;;23.58;13.65;;;3.90;99.90;;;;;;6227514;23;20004;-75
2022/01/25 00:57:55;;;;;;;26.25;15.75;;;3.90;99.90;;;;;;6200206;23;20013;-74
2022/01/25 01:00:21;;;;;;;24.35;14.02;;;3.90;99.90;;;;;;6226903;23;20021;-75
2022/01/25 01:02:47;;;;;;;27.17;15.48;;;3.90;99.90;;;;;;6226096;23;20039;-74
2022/01/25 01:05:12;;;;;;;26.10;15.07;;;3.90;99.90;;;;;;6227286;23;20489;-75
2022/01/25 01:07:40;;;;;;;23.88;14.02;;;3.90;99.90;;;;;;6227233;23;20009;-75
2022/01/25 01:10:06;;;;;;;22.65;14.15;;;3.90;99.90;;;;;;6226498;23;20004;-75
2022/01/25 01:15:28;;;;;;;25.85;14.55;;;3.90;99.90;;;;;;6227128;23;20008;-75
2022/01/25 01:29:02;;;;;;;26.25;14.90;;;3.90;99.90;;;;;;6226553;23;20023;-75
2022/01/25 01:32:02;;;;;;;26.25;14.77;;;3.80;99.90;;;;;;6228894;23;20351;-74
2022/01/25 01:35:32;;;;;;;20.75;11.10;;;3.80;99.90;;;;;;6228173;23;20024;-75
2022/01/25 01:37:40;;;;;;;13.10;7.47;;;3.80;99.90;;;;;;6221311;23;20035;-75
2022/01/25 01:40:19;;;;;;;24.67;14.15;;;3.80;99.90;;;;;;6227955;23;20004;-74
2022/01/25 01:42:59;;;;;;;24.90;13.35;;;3.80;99.90;;;;;;6228638;23;20495;-74
2022/01/25 01:48:09;;;;;;;31.85;17.42;;;3.80;99.90;;;;;;6200773;23;20013;-74
2022/01/25 01:50:37;;;;;;;31.65;16.35;;;3.80;99.90;;;;;;6228702;23;20000;-75
2022/01/25 01:53:07;;;;;;;27.42;15.65;;;3.80;99.90;;;;;;6228682;23;20080;-75
2022/01/25 01:55:33;;;;;;;24.42;13.45;;;3.70;99.90;;;;;;6229088;23;20008;-75
2022/01/25 01:58:00;;;;;;;25.40;14.02;;;3.70;99.90;;;;;;6201535;23;20009;-74
2022/01/25 02:00:50;;;;;;;26.98;14.40;;;3.80;99.90;;;;;;6201937;23;20065;-75
2022/01/25 02:03:16;;;;;;;22.50;12.43;;;3.70;99.90;;;;;;6201703;23;20095;-75
2022/01/25 02:05:42;;;;;;;21.08;11.95;;;3.70;99.90;;;;;;6228501;23;20050;-74
2022/01/25 02:08:08;;;;;;;20.00;11.27;;;3.70;99.90;;;;;;6227928;23;20013;-74
2022/01/25 02:10:34;;;;;;;24.58;12.18;;;3.70;99.90;;;;;;6228199;23;20004;-75
2022/01/25 02:13:02;;;;;;;24.08;13.15;;;3.70;99.90;;;;;;6176467;23;20441;-74
2022/01/25 02:15:28;;;;;;;23.10;12.95;;;3.70;99.90;;;;;;6228057;23;20410;-74
2022/01/25 02:35:32;;;;;;;17.08;8.57;;;3.60;99.90;;;;;;6227276;23;20012;-75
2022/01/25 02:37:57;;;;;;;22.02;12.13;;;3.60;99.90;;;;;;6201055;23;20083;-74
2022/01/25 02:40:23;;;;;;;20.10;11.82;;;3.60;99.90;;;;;;6228274;23;20004;-74
2022/01/25 02:42:51;;;;;;;20.08;11.35;;;3.60;99.90;;;;;;6176390;23;20032;-75
2022/01/25 02:45:17;;;;;;;18.83;10.57;;;3.60;99.90;;;;;;6175374;23;20457;-74
2022/01/25 02:59:07;;;;;;;17.00;10.07;;;3.60;99.90;;;;;;6195880;23;20032;-74
2022/01/25 03:01:34;;;;;;;18.95;10.02;;;3.60;99.90;;;;;;6171195;23;20017;-74
2022/01/25 03:08:03;;;;;;;16.67;9.80;;;3.60;99.90;;;;;;6197522;23;20016;-75
2022/01/25 03:14:47;;;;;;;16.00;8.75;;;3.50;99.90;;;;;;6104767;23;20017;-75
2022/01/25 03:17:13;;;;;;;19.08;10.65;;;3.50;99.90;;;;;;6106293;23;20058;-74
2022/01/25 03:22:43;;;;;;;19.52;11.18;;;3.50;99.90;;;;;;6105794;23;20018;-74
2022/01/25 03:25:05;;;;;;;19.00;10.10;;;3.50;99.90;;;;;;6105527;23;20038;-74
2022/01/25 03:27:30;;;;;;;21.20;11.75;;;3.50;99.90;;;;;;6106172;23;20068;-74
2022/01/25 03:29:56;;;;;;;21.50;12.63;;;3.50;99.90;;;;;;6104794;23;20006;-74
2022/01/25 03:32:21;;;;;;;22.25;12.35;;;3.50;99.90;;;;;;6106251;23;20014;-74
2022/01/25 03:34:47;;;;;;;25.98;12.52;;;3.50;99.90;;;;;;6105735;23;20017;-74
2022/01/25 03:37:13;;;;;;;24.70;13.77;;;3.50;99.90;;;;;;6105713;23;20051;-74
2022/01/25 03:39:38;;;;;;;20.65;11.45;;;3.50;99.90;;;;;;6105947;23;20033;-74
2022/01/25 03:42:08;;;;;;;20.55;11.43;;;3.50;99.90;;;;;;6105684;23;20028;-74
2022/01/25 03:44:34;;;;;;;20.40;11.90;;;3.50;99.90;;;;;;6105506;23;20014;-74
2022/01/25 03:47:05;;;;;;;24.33;13.48;;;3.50;99.90;;;;;;6116352;23;20487;-74
2022/01/25 03:49:51;;;;;;;23.85;12.32;;;3.50;99.90;;;;;;6197347;23;20024;-74
2022/01/25 03:52:33;;;;;;;22.85;11.95;;;3.40;99.90;;;;;;6197145;23;20056;-74
2022/01/25 03:54:59;;;;;;;19.45;10.48;;;3.40;99.90;;;;;;6170982;23;20008;-74
2022/01/25 03:57:28;;;;;;;22.50;12.02;;;3.50;99.90;;;;;;6197071;23;20005;-74
2022/01/25 04:08:16;;;;;;;22.23;12.45;;;3.50;99.90;;;;;;6197240;23;20023;-74
2022/01/25 04:10:42;;;;;;;20.63;10.68;;;3.40;99.90;;;;;;6197335;23;20001;-74
2022/01/25 04:13:08;;;;;;;20.90;11.35;;;3.40;99.90;;;;;;6170142;23;20338;-75
2022/01/25 04:15:39;;;;;;;25.63;13.23;;;3.40;99.90;;;;;;6170664;23;20009;-75
2022/01/25 04:21:23;;;;;;;23.10;13.32;;;3.40;99.90;;;;;;6196917;23;20048;-74
2022/01/25 04:26:32;;;;;;;23.38;13.38;;;3.40;99.90;;;;;;6196949;23;20060;-74
2022/01/25 04:28:58;;;;;;;23.60;12.85;;;3.40;99.90;;;;;;6196525;23;20013;-74
2022/01/25 04:31:24;;;;;;;25.10;13.05;;;3.40;99.90;;;;;;6197586;23;20089;-74
2022/01/25 04:50:07;;;;;;;25.58;13.30;;;3.40;99.90;;;;;;6024025;23;20011;-74
2022/01/25 04:52:42;;;;;;;26.90;14.15;;;3.40;99.90;;;;;;6048166;23;20019;-74
2022/01/25 04:55:17;;;;;;;28.38;14.80;;;3.40;99.90;;;;;;6046971;23;20015;-74
2022/01/25 05:05:42;;;;;;;23.23;11.25;;;3.40;99.90;;;;;;6048758;23;20036;-76
2022/01/25 05:10:45;;;;;;;26.50;13.70;;;3.40;99.90;;;;;;6025541;23;20022;-74
2022/01/25 05:18:18;;;;;;;27.23;13.70;;;3.40;99.90;;;;;;6199258;23;20013;-74
2022/01/25 05:23:28;;;;;;;26.60;13.55;;;3.40;99.90;;;;;;6199231;23;20080;-74
2022/01/25 05:25:54;;;;;;;28.60;14.60;;;3.40;99.90;;;;;;6197470;23;20009;-74
2022/01/25 05:28:20;;;;;;;24.00;11.98;;;3.40;99.90;;;;;;6199901;23;20273;-74
2022/01/25 05:30:45;;;;;;;26.92;13.70;;;3.40;99.90;;;;;;6180210;23;20025;-75
2022/01/25 05:33:11;;;;;;;28.55;14.80;;;3.40;99.90;;;;;;6199149;23;20035;-74
2022/01/25 05:35:37;;;;;;;27.73;13.50;;;3.40;99.90;;;;;;6199152;23;20004;-75
2022/01/25 05:38:02;;;;;;;30.00;15.07;;;3.40;99.90;;;;;;6198125;23;20061;-74
2022/01/25 05:40:42;;;;;;;28.00;14.02;;;3.40;99.90;;;;;;6198067;23;20005;-74
2022/01/25 05:45:58;;;;;;;25.27;12.73;;;3.40;99.90;;;;;;6198517;23;20009;-75
2022/01/25 05:48:25;;;;;;;25.20;12.80;;;3.30;99.90;;;;;;6196391;23;20012;-76
2022/01/25 05:50:51;;;;;;;26.20;12.80;;;3.40;99.90;;;;;;6197841;23;20342;-75
2022/01/25 05:53:17;;;;;;;26.45;13.77;;;3.40;99.90;;;;;;6171457;23;20092;-76
2022/01/25 05:55:43;;;;;;;27.67;13.57;;;3.40;99.90;;;;;;6198355;23;20009;-76
2022/01/25 05:58:08;;;;;;;28.35;13.45;;;3.40;99.90;;;;;;6171529;23;20327;-75
2022/01/25 06:00:34;;;;;;;23.98;11.90;;;3.40;99.90;;;;;;6172409;23;20024;-74
2022/01/25 06:03:01;;;;;;;25.85;12.85;;;3.30;99.90;;;;;;6197614;23;20020;-75
2022/01/25 06:05:27;;;;;;;29.63;14.73;;;3.40;99.90;;;;;;6197940;23;20009;-75
2022/01/25 06:07:52;;;;;;;25.58;13.77;;;3.30;99.90;;;;;;6198160;23;20009;-75
2022/01/25 06:10:18;;;;;;;27.63;13.68;;;3.40;99.90;;;;;;6171546;23;20008;-75
2022/01/25 06:12:45;;;;;;;28.40;15.02;;;3.40;99.90;;;;;;6197875;23;20008;-75
2022/01/25 06:15:11;;;;;;;20.52;10.88;;;3.30;99.90;;;;;;6197370;23;20001;-75
2022/01/25 06:17:37;;;;;;;31.13;15.55;;;3.40;99.90;;;;;;6197824;23;20005;-75
2022/01/25 06:20:04;;;;;;;30.70;15.88;;;3.40;99.90;;;;;;6171426;23;20009;-75
2022/01/25 06:22:30;;;;;;;31.73;14.75;;;3.40;99.90;;;;;;6197238;23;20013;-75
2022/01/25 06:24:56;;;;;;;29.30;14.23;;;3.30;99.90;;;;;;6197566;23;20008;-75
2022/01/25 06:27:21;;;;;;;27.02;14.05;;;3.40;99.90;;;;;;6198182;23;20068;-76
2022/01/25 06:29:50;;;;;;;29.85;14.73;;;3.40;99.90;;;;;;6197723;23;20009;-78
2022/01/25 06:32:16;;;;;;;30.52;14.52;;;3.30;99.90;;;;;;6171412;23;20009;-76
2022/01/25 06:34:44;;;;;;;30.95;15.65;;;3.30;99.90;;;;;;6198242;23;20028;-75
2022/01/25 06:37:11;;;;;;;30.17;15.13;;;3.30;99.90;;;;;;6171009;23;20009;-75
2022/01/25 06:39:37;;;;;;;19.52;9.45;;;3.30;99.90;;;;;;6198050;23;20056;-74
2022/01/25 06:42:03;;;;;;;29.27;13.93;;;3.30;99.90;;;;;;6197073;23;20440;-75
2022/01/25 06:44:29;;;;;;;26.52;13.48;;;3.30;99.90;;;;;;6198074;23;20035;-75
2022/01/25 06:46:55;;;;;;;27.60;14.02;;;3.30;99.90;;;;;;6170974;23;20387;-76
2022/01/25 06:49:20;;;;;;;30.52;14.95;;;3.30;99.90;;;;;;6171416;23;20009;-74
2022/01/25 06:51:46;;;;;;;31.45;16.17;;;3.30;99.90;;;;;;6196934;23;20006;-75
2022/01/25 06:54:11;;;;;;;31.67;15.45;;;3.30;99.90;;;;;;6197621;23;20020;-74
2022/01/25 06:56:37;;;;;;;22.50;11.15;;;3.30;99.90;;;;;;6162261;23;20005;-75
2022/01/25 06:59:03;;;;;;;22.13;11.07;;;3.30;99.90;;;;;;6169751;23;20177;-75
2022/01/25 07:01:29;;;;;;;21.25;9.43;;;3.30;99.90;;;;;;6170043;23;20343;-75
2022/01/25 07:03:55;;;;;;;23.67;12.25;;;3.30;99.90;;;;;;6195636;23;20067;-75
2022/01/25 07:06:20;;;;;;;20.67;10.27;;;3.30;99.90;;;;;;6195149;23;20008;-75
2022/01/25 07:08:46;;;;;;;28.60;13.93;;;3.30;99.90;;;;;;6170584;23;20016;-75
2022/01/25 07:11:13;;;;;;;26.40;12.82;;;3.30;99.90;;;;;;6196953;23;20001;-75
2022/01/25 07:13:39;;;;;;;26.05;13.05;;;3.30;99.90;;;;;;6197708;23;20005;-75
2022/01/25 07:16:05;;;;;;;29.10;13.85;;;3.30;99.90;;;;;;6196326;23;20077;-76
2022/01/25 07:18:31;;;;;;;27.10;12.63;;;3.30;99.90;;;;;;6196617;23;20009;-75
2022/01/25 07:20:57;;;;;;;23.35;11.57;;;3.30;99.90;;;;;;6195801;23;20013;-75
2022/01/25 07:23:23;;;;;;;29.38;14.40;;;3.30;99.90;;;;;;6196997;23;20485;-75
2022/01/25 07:25:48;;;;;;;24.52;11.60;;;3.30;99.90;;;;;;6196713;23;20009;-75
2022/01/25 07:28:14;;;;;;;28.02;13.23;;;3.30;99.90;;;;;;6142322;23;20054;-75
2022/01/25 07:30:40;;;;;;;31.58;15.20;;;3.30;99.90;;;;;;6110967;23;20007;-75
2022/01/25 07:33:07;;;;;;;26.50;12.57;;;3.30;99.90;;;;;;6107462;23;20353;-75
2022/01/25 07:35:34;;;;;;;24.23;12.13;;;3.30;99.90;;;;;;6105983;23;20013;-75
2022/01/25 07:38:00;;;;;;;27.08;13.43;;;3.30;99.90;;;;;;6107126;23;20010;-75
2022/01/25 07:40:26;;;;;;;21.58;10.35;;;3.30;99.90;;;;;;6106058;23;20013;-75
2022/01/25 07:42:52;;;;;;;34.58;17.17;;;3.30;99.90;;;;;;6106935;23;20050;-75
2022/01/25 07:45:18;;;;;;;33.10;16.55;;;3.30;99.90;;;;;;6107700;23;20008;-75
2022/01/25 07:47:43;;;;;;;30.33;15.13;;;3.30;99.90;;;;;;6106247;23;20041;-75
2022/01/25 07:50:10;;;;;;;32.97;17.10;;;3.30;99.90;;;;;;6104751;23;20075;-75
2022/01/25 07:52:36;;;;;;;31.65;14.75;;;3.30;99.90;;;;;;6107360;23;20030;-75
2022/01/25 07:55:03;;;;;;;25.48;13.38;;;3.30;99.90;;;;;;6107171;23;20054;-75
2022/01/25 07:57:28;;;;;;;31.73;15.15;;;3.30;99.90;;;;;;6105106;23;20037;-75
2022/01/25 07:59:55;;;;;;;28.75;14.38;;;3.30;99.90;;;;;;6107483;23;20025;-75
2022/01/25 08:02:20;;;;;;;30.60;15.00;;;3.30;99.90;;;;;;6081622;23;20019;-75
2022/01/25 08:04:46;;;;;;;32.50;15.88;;;3.30;99.90;;;;;;6104673;23;20503;-75
2022/01/25 08:07:13;;;;;;;30.95;15.25;;;3.30;99.90;;;;;;6107535;23;20018;-75
2022/01/25 08:09:39;;;;;;;25.67;12.88;;;3.30;99.90;;;;;;6107466;23;20006;-75
2022/01/25 08:12:05;;;;;;;31.33;15.00;;;3.40;99.90;;;;;;6105083;23;20013;-75
2022/01/25 08:14:31;;;;;;;33.92;16.25;;;3.30;99.90;;;;;;6107065;23;20068;-75
2022/01/25 08:16:57;;;;;;;33.58;17.13;;;3.30;99.90;;;;;;6105781;23;20018;-75
2022/01/25 08:19:22;;;;;;;31.05;16.45;;;3.30;99.90;;;;;;6106531;23;20136;-75
2022/01/25 08:21:49;;;;;;;32.03;15.18;;;3.30;99.90;;;;;;6105514;23;20018;-74
2022/01/25 08:24:18;;;;;;;31.77;15.68;;;3.40;99.90;;;;;;6106376;23;20014;-75
2022/01/25 08:26:46;;;;;;;27.47;13.47;;;3.40;99.90;;;;;;6104450;23;20025;-75
2022/01/25 08:29:12;;;;;;;26.02;13.73;;;3.40;99.90;;;;;;6082235;23;20019;-76
2022/01/25 08:31:41;;;;;;;31.00;15.93;;;3.40;99.90;;;;;;6105866;23;20068;-75
2022/01/25 08:34:07;;;;;;;31.85;16.70;;;3.40;99.90;;;;;;6105333;23;20329;-75
2022/01/25 08:36:34;;;;;;;35.60;17.27;;;3.40;99.90;;;;;;6104372;23;20440;-75
2022/01/25 08:38:59;;;;;;;30.92;15.25;;;3.30;99.90;;;;;;6090455;23;20006;-75
2022/01/25 08:41:25;;;;;;;26.40;12.98;;;3.40;99.90;;;;;;6105714;23;20021;-75
2022/01/25 08:43:51;;;;;;;25.45;13.27;;;3.40;99.90;;;;;;6104339;23;20042;-75
2022/01/25 08:46:18;;;;;;;28.40;14.18;;;3.40;99.90;;;;;;6106642;23;20437;-75
2022/01/25 08:48:45;;;;;;;32.05;16.15;;;3.40;99.90;;;;;;6105704;23;20017;-75
2022/01/25 08:51:11;;;;;;;33.78;15.38;;;3.40;99.90;;;;;;6106056;23;20062;-75
2022/01/25 08:53:37;;;;;;;31.08;15.40;;;3.40;99.90;;;;;;6106212;23;20022;-75
2022/01/25 08:56:05;;;;;;;31.70;15.57;;;3.40;99.90;;;;;;6106008;23;20022;-75
2022/01/25 08:58:30;;;;;;;32.92;15.52;;;3.40;99.90;;;;;;6105514;23;20066;-75
2022/01/25 09:00:56;;;;;;;31.90;15.43;;;3.50;99.90;;;;;;6104815;23;20369;-75
2022/01/25 09:03:22;;;;;;;31.73;15.23;;;3.50;99.90;;;;;;6106653;23;20010;-75
2022/01/25 09:05:48;;;;;;;30.58;14.20;;;3.50;99.90;;;;;;6109572;23;20021;-75
2022/01/25 09:08:21;;;;;;;25.02;11.32;;;3.50;99.90;;;;;;6134684;23;20006;-76
2022/01/25 09:10:50;;;;;;;45.05;21.88;;;3.50;99.90;;;;;;6109676;23;20010;-75
2022/01/25 09:13:19;;;;;;;49.70;25.73;;;3.40;99.90;;;;;;6109210;23;20017;-75
2022/01/25 09:15:45;;;;;;;39.28;19.20;;;3.40;99.90;;;;;;6109245;23;20451;-75
2022/01/25 09:18:11;;;;;;;33.85;16.98;;;3.50;99.90;;;;;;6108816;23;20006;-75
2022/01/25 09:20:37;;;;;;;34.28;16.55;;;3.50;99.90;;;;;;6109711;23;20367;-76
2022/01/25 09:23:03;;;;;;;33.30;16.13;;;3.50;99.90;;;;;;6108312;23;20017;-75
2022/01/25 09:25:29;;;;;;;31.33;14.77;;;3.60;99.90;;;;;;6135521;23;20066;-75
2022/01/25 09:27:55;;;;;;;32.42;16.38;;;3.60;99.90;;;;;;6122082;23;20018;-76
2022/01/25 09:30:21;;;;;;;28.70;14.88;;;3.50;99.90;;;;;;6134907;23;20064;-76
2022/01/25 09:32:46;;;;;;;30.20;15.43;;;3.60;99.90;;;;;;6135443;23;20009;-76
2022/01/25 09:35:12;;;;;;;25.02;12.52;;;3.60;99.90;;;;;;6109607;23;20010;-76
2022/01/25 09:37:38;;;;;;;20.00;9.63;;;3.60;99.90;;;;;;6135247;23;20006;-76
2022/01/25 09:40:05;;;;;;;27.98;13.57;;;3.60;99.90;;;;;;6108284;23;20018;-75
2022/01/25 09:42:31;;;;;;;30.27;14.27;;;3.60;99.90;;;;;;6109680;23;20089;-76
2022/01/25 09:44:58;;;;;;;29.13;14.35;;;3.60;99.90;;;;;;6134402;23;20017;-76
2022/01/25 09:47:24;;;;;;;27.20;13.68;;;3.60;99.90;;;;;;6135032;23;20021;-76
2022/01/25 09:49:49;;;;;;;27.73;13.32;;;3.70;99.90;;;;;;6110398;23;20005;-75
2022/01/25 09:52:18;;;;;;;28.08;13.85;;;3.70;99.90;;;;;;6111200;23;20043;-77
2022/01/25 09:54:56;;;;;;;30.70;13.68;;;3.70;99.90;;;;;;6111285;23;20010;-76
2022/01/25 09:57:22;;;;;;;26.88;13.65;;;3.70;99.90;;;;;;6111060;23;20010;-76
2022/01/25 09:59:49;;;;;;;27.75;13.65;;;3.70;99.90;;;;;;6110288;23;20432;-76
2022/01/25 10:02:40;;;;;;;33.67;15.93;;;3.70;99.90;;;;;;6137113;23;20025;-76
2022/01/25 10:05:30;;;;;;;25.63;12.38;;;3.70;99.90;;;;;;6136951;23;20092;-76
2022/01/25 10:07:58;;;;;;;31.85;14.98;;;3.70;99.90;;;;;;6136704;23;20025;-76
2022/01/25 10:10:25;;;;;;;29.67;15.25;;;3.70;99.90;;;;;;6137080;23;20076;-78
2022/01/25 10:12:52;;;;;;;27.77;13.82;;;3.70;99.90;;;;;;6136623;23;20021;-79
2022/01/25 10:15:18;;;;;;;27.77;13.48;;;3.70;99.90;;;;;;6136377;23;20026;-76
2022/01/25 10:17:44;;;;;;;22.67;11.27;;;3.80;99.90;;;;;;6136157;23;20014;-76
2022/01/25 10:20:34;;;;;;;26.23;12.82;;;3.80;99.90;;;;;;6137272;23;20002;-76
2022/01/25 10:23:07;;;;;;;20.80;10.27;;;3.80;99.90;;;;;;6110297;23;20017;-76
2022/01/25 10:25:35;;;;;;;25.23;12.95;;;3.80;99.90;;;;;;6136968;23;20028;-76
2022/01/25 10:30:36;;;;;;;25.70;12.63;;;3.80;99.90;;;;;;6110046;23;20006;-76
2022/01/25 10:33:15;;;;;;;26.30;12.77;;;3.90;99.90;;;;;;6136704;23;20002;-76
2022/01/25 10:35:41;;;;;;;24.27;12.07;;;3.90;99.90;;;;;;6137306;23;20265;-76
2022/01/25 10:38:21;;;;;;;26.27;11.60;;;3.90;99.90;;;;;;6136050;23;20002;-76
2022/01/25 10:40:55;;;;;;;26.58;12.88;;;3.90;99.90;;;;;;6137107;23;20010;-75
2022/01/25 10:43:22;;;;;;;28.25;13.75;;;4.00;99.90;;;;;;6109742;23;20025;-77
2022/01/25 10:46:12;;;;;;;29.20;13.60;;;3.90;99.90;;;;;;6136178;23;20029;-76
2022/01/25 10:48:41;;;;;;;27.30;13.40;;;3.90;99.90;;;;;;6110105;23;20065;-75
2022/01/25 10:51:10;;;;;;;24.20;11.60;;;3.90;99.90;;;;;;6110554;23;20335;-76
2022/01/25 10:53:37;;;;;;;24.75;12.95;;;3.90;99.90;;;;;;6086368;23;20038;-79
2022/01/25 10:56:05;;;;;;;21.65;10.75;;;3.90;99.90;;;;;;6086440;23;20161;-76
2022/01/25 10:58:35;;;;;;;27.77;13.23;;;3.90;99.90;;;;;;6136134;23;20017;-75
2022/01/25 11:01:01;;;;;;;;;;;3.90;99.90;;;;;;6136502;23;20017;-76
2022/01/25 11:03:31;;;;;;;20.52;10.13;;;3.90;99.90;;;;;;6110089;23;19913;-76
2022/01/25 11:06:07;;;;;;;21.00;10.50;;;3.80;99.90;;;;;;6110238;23;20021;-76
2022/01/25 11:08:36;;;;;;;27.20;12.52;;;3.80;99.90;;;;;;6135849;23;20010;-76
2022/01/25 11:11:03;;;;;;;38.75;19.50;;;3.80;99.90;;;;;;6136297;23;20010;-76
2022/01/25 11:15:56;;;;;;;31.13;15.45;;;3.80;99.90;;;;;;6110155;23;20014;-76
2022/01/25 11:18:21;;;;;;;32.92;16.80;;;3.80;99.90;;;;;;6135900;23;20057;-76
2022/01/25 11:20:52;;;;;;;32.47;16.88;;;3.80;99.90;;;;;;6110797;23;20026;-75
2022/01/25 11:23:18;;;;;;;31.85;16.10;;;3.90;99.90;;;;;;6136222;23;20029;-76
2022/01/25 11:25:45;;;;;;;31.77;15.27;;;4.00;99.90;;;;;;6135259;23;20029;-76
2022/01/25 11:28:13;;;;;;;23.30;11.90;;;3.90;99.90;;;;;;6059840;23;20016;-75
2022/01/25 11:30:40;;;;;;;26.50;13.25;;;3.90;99.90;;;;;;6110569;23;20042;-76
2022/01/25 11:33:09;;;;;;;29.17;14.50;;;3.90;99.90;;;;;;6085697;23;20006;-76
2022/01/25 11:35:36;;;;;;;29.60;15.35;;;3.90;99.90;;;;;;6110220;23;20014;-76
2022/01/25 11:38:02;;;;;;;26.25;13.32;;;4.00;99.90;;;;;;6106737;23;20418;-76
2022/01/25 11:40:29;;;;;;;47.47;24.45;;;3.90;99.90;;;;;;6086209;23;20014;-76
2022/01/25 11:43:07;;;;;;;46.75;24.48;;;3.90;99.90;;;;;;6109556;23;20033;-76
2022/01/25 11:45:36;;;;;;;37.50;19.35;;;3.90;99.90;;;;;;6086079;23;20018;-75
2022/01/25 11:48:03;;;;;;;34.25;17.30;;;3.90;99.90;;;;;;6108837;23;20061;-76
2022/01/25 11:50:35;;;;;;;31.17;15.48;;;3.90;99.90;;;;;;6110173;23;20002;-76
2022/01/25 11:53:06;;;;;;;34.95;17.20;;;4.00;99.90;;;;;;6135217;23;20009;-76
2022/01/25 11:55:34;;;;;;;31.98;15.88;;;4.00;99.90;;;;;;6135307;23;20444;-76
2022/01/25 11:58:05;;;;;;;28.15;15.38;;;3.90;99.90;;;;;;6109111;23;20078;-76
2022/01/25 12:00:47;;;;;;;27.45;13.82;;;4.00;99.90;;;;;;6136164;23;20006;-76
2022/01/25 12:03:23;;;;;;;21.48;11.52;;;4.00;99.90;;;;;;6136181;23;20028;-76
2022/01/25 12:06:20;;;;;;;28.77;14.57;;;4.00;99.90;;;;;;6135292;23;20022;-76
2022/01/25 12:11:31;;;;;;;26.40;13.65;;;4.10;99.90;;;;;;6135418;23;20025;-77
2022/01/25 12:14:13;;;;;;;22.48;11.32;;;4.00;99.90;;;;;;6109679;23;20017;-76
2022/01/25 12:16:43;;;;;;;28.30;13.27;;;4.00;99.90;;;;;;6135653;23;20025;-76
2022/01/25 12:34:32;;;;;;;23.45;11.18;;;4.00;99.90;;;;;;6130298;23;20021;-77
2022/01/25 12:36:58;;;;;;;19.08;9.68;;;4.00;99.90;;;;;;6135346;23;20006;-77
2022/01/25 12:39:34;;;;;;;24.02;12.18;;;4.00;99.90;;;;;;6135336;23;20093;-78
2022/01/25 12:42:00;;;;;;;22.80;11.65;;;4.00;99.90;;;;;;6134946;23;20069;-76
2022/01/25 12:44:25;;;;;;;25.65;11.93;;;4.00;99.90;;;;;;6135591;23;20076;-76
2022/01/25 12:46:51;;;;;;;22.15;11.48;;;4.00;99.90;;;;;;6135247;23;20305;-77
2022/01/25 12:49:20;;;;;;;26.05;13.15;;;4.00;99.90;;;;;;6108957;23;20013;-77
2022/01/25 12:51:50;;;;;;;18.23;8.00;;;4.00;99.90;;;;;;6134761;23;20010;-77
2022/01/25 12:54:16;;;;;;;26.65;13.48;;;4.00;99.90;;;;;;6108824;23;20070;-77
2022/01/25 12:56:49;;;;;;;21.85;11.73;;;3.90;99.90;;;;;;6109342;23;20014;-76
2022/01/25 12:59:21;;;;;;;26.88;12.20;;;4.00;99.90;;;;;;6135672;23;20037;-76
2022/01/25 13:01:48;;;;;;;22.55;11.07;;;3.90;99.90;;;;;;6134572;23;20017;-76
2022/01/25 13:04:14;;;;;;;29.27;13.43;;;3.90;99.90;;;;;;6135178;23;20022;-76
2022/01/25 13:06:46;;;;;;;34.03;16.88;;;3.90;99.90;;;;;;6134851;23;20037;-77
2022/01/25 13:19:20;;;;;;;19.50;9.05;;;3.90;99.90;;;;;;6130491;23;20069;-76
2022/01/25 13:21:51;;;;;;;21.88;10.02;;;3.90;99.90;;;;;;6107995;23;20010;-76
2022/01/25 13:24:19;;;;;;;21.10;10.10;;;4.00;99.90;;;;;;6109564;23;20022;-75
2022/01/25 13:26:54;;;;;;;24.35;10.95;;;4.00;99.90;;;;;;6110708;23;20010;-76
2022/01/25 13:32:13;;;;;;;24.10;11.43;;;4.00;99.90;;;;;;6136915;23;20142;-76
2022/01/25 13:34:38;;;;;;;24.27;11.98;;;3.90;99.90;;;;;;6110530;23;20096;-76
2022/01/25 13:37:04;;;;;;;25.17;12.50;;;4.00;99.90;;;;;;6135987;23;20384;-76
2022/01/25 13:39:30;;;;;;;25.63;11.57;;;3.90;99.90;;;;;;6137316;23;20025;-76
2022/01/25 13:42:04;;;;;;;20.80;10.27;;;4.00;99.90;;;;;;6136670;23;20014;-76
2022/01/25 13:47:14;;;;;;;26.40;12.80;;;3.90;99.90;;;;;;6136669;23;20013;-76
2022/01/25 13:49:40;;;;;;;27.00;12.40;;;4.00;99.90;;;;;;6135976;23;20069;-76
2022/01/25 13:52:06;;;;;;;23.65;11.35;;;3.90;99.90;;;;;;6110203;23;20018;-77
2022/01/25 13:54:32;;;;;;;28.13;13.57;;;3.90;99.90;;;;;;6087135;23;20010;-76
2022/01/25 13:57:09;;;;;;;26.20;12.55;;;3.80;99.90;;;;;;6111398;23;20057;-76
2022/01/25 13:59:35;;;;;;;24.17;12.15;;;3.90;99.90;;;;;;6142299;23;20042;-76
2022/01/25 14:02:00;;;;;;;24.63;12.27;;;3.90;99.90;;;;;;6136819;23;20070;-76
2022/01/25 14:04:31;;;;;;;19.88;9.93;;;3.90;99.90;;;;;;6110318;23;20338;-76
2022/01/25 14:07:00;;;;;;;27.15;13.55;;;3.90;99.90;;;;;;6109355;23;20010;-76
2022/01/25 14:09:33;;;;;;;26.48;13.43;;;3.90;99.90;;;;;;6110988;23;20002;-76
2022/01/25 14:23:34;;;;;;;24.67;11.65;;;3.80;99.90;;;;;;6110159;23;20025;-76
2022/01/25 14:26:02;;;;;;;25.65;12.00;;;3.90;99.90;;;;;;6109904;23;20024;-77
2022/01/25 14:28:29;;;;;;;25.65;12.95;;;3.90;99.90;;;;;;6110106;23;20033;-76
2022/01/25 14:30:57;;;;;;;27.05;13.85;;;3.90;99.90;;;;;;6109511;23;20002;-76
2022/01/25 14:33:25;;;;;;;25.08;12.38;;;3.90;99.90;;;;;;6110242;23;20022;-76
2022/01/25 14:36:08;;;;;;;26.15;11.73;;;3.90;99.90;;;;;;6109219;23;20014;-76
2022/01/25 14:38:39;;;;;;;22.05;10.77;;;3.90;99.90;;;;;;6135836;23;20016;-77
2022/01/25 14:41:20;;;;;;;23.25;11.80;;;3.90;99.90;;;;;;6136044;23;20032;-76
2022/01/25 14:43:54;;;;;;;25.92;11.38;;;3.80;99.90;;;;;;6110212;23;20045;-77
2022/01/25 14:46:27;;;;;;;22.90;10.70;;;3.80;99.90;;;;;;6136698;23;20013;-76
2022/01/25 14:48:59;;;;;;;24.98;11.25;;;3.70;99.90;;;;;;6108836;23;20058;-77
2022/01/25 14:51:33;;;;;;;22.15;12.02;;;3.70;99.90;;;;;;6085637;23;20005;-76
2022/01/25 14:53:59;;;;;;;25.88;12.13;;;3.70;99.90;;;;;;6136150;23;20009;-76
2022/01/25 14:56:30;;;;;;;27.25;12.18;;;3.70;99.90;;;;;;6110355;23;20030;-76
2022/01/25 15:01:21;;;;;;;27.23;12.57;;;3.70;99.90;;;;;;6136141;23;20037;-76
2022/01/25 15:03:49;;;;;;;24.08;10.70;;;3.70;99.90;;;;;;6134723;23;20018;-76
2022/01/25 15:06:17;;;;;;;27.15;12.10;;;3.70;99.90;;;;;;6086120;23;20030;-76
2022/01/25 15:08:54;;;;;;;28.10;12.95;;;3.60;99.90;;;;;;6135504;23;20017;-76
2022/01/25 15:11:23;;;;;;;26.52;12.48;;;3.70;99.90;;;;;;6136263;23;20013;-76
2022/01/25 15:13:55;;;;;;;26.10;11.93;;;3.70;99.90;;;;;;6085494;23;20077;-76
2022/01/25 15:16:22;;;;;;;26.98;13.30;;;3.70;99.90;;;;;;6110552;23;20077;-77
2022/01/25 15:18:47;;;;;;;25.00;12.90;;;3.60;99.90;;;;;;6134685;23;20009;-76
2022/01/25 15:21:15;;;;;;;27.33;13.40;;;3.60;99.90;;;;;;6110099;23;20021;-76
2022/01/25 15:23:45;;;;;;;29.42;13.38;;;3.50;99.90;;;;;;6135329;23;20010;-76
2022/01/25 15:26:15;;;;;;;29.70;14.02;;;3.50;99.90;;;;;;6136444;23;20062;-76
2022/01/25 15:48:20;;;;;;;24.15;10.63;;;3.50;99.90;;;;;;6134874;23;20089;-76
2022/01/25 15:50:46;;;;;;;27.58;13.13;;;3.40;99.90;;;;;;6108936;23;20018;-76
2022/01/25 15:53:11;;;;;;;28.45;12.75;;;3.40;99.90;;;;;;6135482;23;20380;-78
2022/01/25 16:29:16;;;;;;;19.67;9.40;;;3.40;99.90;;;;;;6075259;23;20045;-80
2022/01/25 16:31:43;;;;;;;22.58;10.43;;;3.40;99.90;;;;;;6054080;23;20010;-79
2022/01/25 16:34:10;;;;;;;19.05;8.32;;;3.40;99.90;;;;;;6079109;23;20010;-80
2022/01/25 16:36:37;;;;;;;21.27;9.57;;;3.40;99.90;;;;;;6081412;23;20101;-80
2022/01/25 16:39:04;;;;;;;32.90;15.18;;;3.40;99.90;;;;;;6055782;23;20034;-80
2022/01/25 16:41:30;;;;;;;28.05;13.90;;;3.30;99.90;;;;;;6056287;23;20066;-80
2022/01/25 16:43:56;;;;;;;28.05;13.15;;;3.30;99.90;;;;;;6080369;23;20018;-80
2022/01/25 16:46:22;;;;;;;29.58;13.32;;;3.30;99.90;;;;;;6081191;23;20006;-80
2022/01/25 16:48:48;;;;;;;27.00;13.07;;;3.30;99.90;;;;;;6056476;23;20010;-80
2022/01/25 16:51:15;;;;;;;22.20;10.63;;;3.30;99.90;;;;;;6057411;23;20010;-80
2022/01/25 16:53:44;;;;;;;28.95;13.02;;;3.30;99.90;;;;;;6082257;23;20016;-81